sensor_id;sensor_type;location;lat;lon;timestamp;P1;durP1;ratioP1;P2;durP2;ratioP2
7104;SDS011;3594;42.152;24.714;2023-03-01T00:01:08;2.27;;;1.97;;
7104;SDS011;3594;42.152;24.714;2023-03-01T00:03:36;2.60;;;2.40;;
7104;SDS011;3594;42.152;24.714;2023-03-01T00:06:03;3.53;;;2.47;;
7104;SDS011;3594;42.152;24.714;2023-03-01T00:08:29;2.97;;;2.23;;
7104;SDS011;3594;42.152;24.714;2023-03-01T00:13:29;2.83;;;1.80;;
7104;SDS011;3594;42.152;24.714;2023-03-01T00:15:55;2.83;;;2.07;;
7104;SDS011;3594;42.152;24.714;2023-03-01T00:18:20;2.20;;;1.77;;
7104;SDS011;3594;42.152;24.714;2023-03-01T00:20:52;2.17;;;1.83;;
7104;SDS011;3594;42.152;24.714;2023-03-01T00:23:18;3.17;;;2.10;;
7104;SDS011;3594;42.152;24.714;2023-03-01T00:25:44;2.93;;;1.93;;
7104;SDS011;3594;42.152;24.714;2023-03-01T00:28:10;2.47;;;2.00;;
7104;SDS011;3594;42.152;24.714;2023-03-01T00:30:35;1.93;;;1.83;;
7104;SDS011;3594;42.152;24.714;2023-03-01T00:33:00;1.70;;;1.60;;
7104;SDS011;3594;42.152;24.714;2023-03-01T00:35:26;2.30;;;2.07;;
7104;SDS011;3594;42.152;24.714;2023-03-01T00:37:51;3.03;;;2.33;;
7104;SDS011;3594;42.152;24.714;2023-03-01T00:40:23;4.00;;;1.80;;
7104;SDS011;3594;42.152;24.714;2023-03-01T00:42:49;1.90;;;1.67;;
7104;SDS011;3594;42.152;24.714;2023-03-01T00:45:14;2.60;;;2.00;;
7104;SDS011;3594;42.152;24.714;2023-03-01T00:47:40;1.70;;;1.60;;
7104;SDS011;3594;42.152;24.714;2023-03-01T00:50:05;2.30;;;2.10;;
7104;SDS011;3594;42.152;24.714;2023-03-01T00:52:31;3.57;;;1.83;;
7104;SDS011;3594;42.152;24.714;2023-03-01T00:54:57;2.10;;;1.90;;
7104;SDS011;3594;42.152;24.714;2023-03-01T00:57:23;2.27;;;2.07;;
7104;SDS011;3594;42.152;24.714;2023-03-01T00:59:48;2.50;;;2.03;;
7104;SDS011;3594;42.152;24.714;2023-03-01T01:02:13;3.67;;;1.83;;
7104;SDS011;3594;42.152;24.714;2023-03-01T01:04:39;3.07;;;2.30;;
7104;SDS011;3594;42.152;24.714;2023-03-01T01:07:04;2.27;;;2.03;;
7104;SDS011;3594;42.152;24.714;2023-03-01T01:09:30;1.90;;;1.80;;
7104;SDS011;3594;42.152;24.714;2023-03-01T01:11:56;2.80;;;2.33;;
7104;SDS011;3594;42.152;24.714;2023-03-01T01:14:21;3.90;;;2.40;;
7104;SDS011;3594;42.152;24.714;2023-03-01T01:16:47;2.07;;;1.90;;
7104;SDS011;3594;42.152;24.714;2023-03-01T01:19:13;2.13;;;1.80;;
7104;SDS011;3594;42.152;24.714;2023-03-01T01:21:39;2.90;;;2.23;;
7104;SDS011;3594;42.152;24.714;2023-03-01T01:24:07;2.07;;;1.80;;
7104;SDS011;3594;42.152;24.714;2023-03-01T01:26:34;2.23;;;2.00;;
7104;SDS011;3594;42.152;24.714;2023-03-01T01:29:00;2.07;;;1.83;;
7104;SDS011;3594;42.152;24.714;2023-03-01T01:31:26;3.40;;;2.20;;
7104;SDS011;3594;42.152;24.714;2023-03-01T01:33:53;2.50;;;2.30;;
7104;SDS011;3594;42.152;24.714;2023-03-01T01:36:19;3.20;;;2.33;;
7104;SDS011;3594;42.152;24.714;2023-03-01T01:38:45;1.97;;;1.77;;
7104;SDS011;3594;42.152;24.714;2023-03-01T01:41:11;2.53;;;2.33;;
7104;SDS011;3594;42.152;24.714;2023-03-01T01:43:38;2.40;;;1.90;;
7104;SDS011;3594;42.152;24.714;2023-03-01T01:48:47;2.40;;;1.80;;
7104;SDS011;3594;42.152;24.714;2023-03-01T01:51:18;3.13;;;2.20;;
7104;SDS011;3594;42.152;24.714;2023-03-01T01:53:49;2.77;;;2.10;;
7104;SDS011;3594;42.152;24.714;2023-03-01T01:56:19;2.63;;;2.43;;
7104;SDS011;3594;42.152;24.714;2023-03-01T01:58:46;2.17;;;1.97;;
7104;SDS011;3594;42.152;24.714;2023-03-01T02:01:12;2.73;;;2.30;;
7104;SDS011;3594;42.152;24.714;2023-03-01T02:03:38;2.30;;;2.10;;
7104;SDS011;3594;42.152;24.714;2023-03-01T02:06:26;2.40;;;2.13;;
7104;SDS011;3594;42.152;24.714;2023-03-01T02:08:59;2.73;;;2.30;;
7104;SDS011;3594;42.152;24.714;2023-03-01T02:11:30;5.07;;;2.47;;
7104;SDS011;3594;42.152;24.714;2023-03-01T02:13:57;2.60;;;2.07;;
7104;SDS011;3594;42.152;24.714;2023-03-01T02:16:22;3.30;;;2.20;;
7104;SDS011;3594;42.152;24.714;2023-03-01T02:18:48;2.50;;;2.07;;
7104;SDS011;3594;42.152;24.714;2023-03-01T02:21:23;3.30;;;2.17;;
7104;SDS011;3594;42.152;24.714;2023-03-01T02:23:53;2.87;;;1.90;;
7104;SDS011;3594;42.152;24.714;2023-03-01T02:26:22;2.67;;;2.13;;
7104;SDS011;3594;42.152;24.714;2023-03-01T02:28:53;2.33;;;2.07;;
7104;SDS011;3594;42.152;24.714;2023-03-01T02:31:19;3.03;;;2.27;;
7104;SDS011;3594;42.152;24.714;2023-03-01T02:34:05;3.73;;;1.93;;
7104;SDS011;3594;42.152;24.714;2023-03-01T02:36:34;2.20;;;2.00;;
7104;SDS011;3594;42.152;24.714;2023-03-01T02:39:03;2.07;;;1.90;;
7104;SDS011;3594;42.152;24.714;2023-03-01T02:41:32;2.70;;;2.03;;
7104;SDS011;3594;42.152;24.714;2023-03-01T02:44:00;2.77;;;2.17;;
7104;SDS011;3594;42.152;24.714;2023-03-01T02:46:27;2.30;;;2.10;;
7104;SDS011;3594;42.152;24.714;2023-03-01T02:48:54;2.43;;;2.00;;
7104;SDS011;3594;42.152;24.714;2023-03-01T02:56:38;2.43;;;2.23;;
7104;SDS011;3594;42.152;24.714;2023-03-01T02:59:05;2.67;;;1.83;;
7104;SDS011;3594;42.152;24.714;2023-03-01T03:01:31;1.70;;;1.60;;
7104;SDS011;3594;42.152;24.714;2023-03-01T03:04:03;2.27;;;2.00;;
7104;SDS011;3594;42.152;24.714;2023-03-01T03:06:32;2.60;;;1.90;;
7104;SDS011;3594;42.152;24.714;2023-03-01T03:08:59;1.40;;;1.30;;
7104;SDS011;3594;42.152;24.714;2023-03-01T03:11:24;2.70;;;2.03;;
7104;SDS011;3594;42.152;24.714;2023-03-01T03:13:50;1.80;;;1.70;;
7104;SDS011;3594;42.152;24.714;2023-03-01T03:16:17;2.00;;;1.80;;
7104;SDS011;3594;42.152;24.714;2023-03-01T03:18:42;1.80;;;1.70;;
7104;SDS011;3594;42.152;24.714;2023-03-01T03:21:08;2.20;;;2.00;;
7104;SDS011;3594;42.152;24.714;2023-03-01T03:23:35;2.80;;;2.10;;
7104;SDS011;3594;42.152;24.714;2023-03-01T03:26:02;2.23;;;1.97;;
7104;SDS011;3594;42.152;24.714;2023-03-01T03:28:29;2.20;;;2.00;;
7104;SDS011;3594;42.152;24.714;2023-03-01T03:30:55;2.60;;;1.93;;
7104;SDS011;3594;42.152;24.714;2023-03-01T03:33:21;2.37;;;2.00;;
7104;SDS011;3594;42.152;24.714;2023-03-01T03:35:48;2.50;;;2.17;;
7104;SDS011;3594;42.152;24.714;2023-03-01T03:38:15;1.67;;;1.57;;
7104;SDS011;3594;42.152;24.714;2023-03-01T03:40:44;3.07;;;2.37;;
7104;SDS011;3594;42.152;24.714;2023-03-01T03:43:28;3.47;;;2.37;;
7104;SDS011;3594;42.152;24.714;2023-03-01T03:45:55;2.50;;;2.03;;
7104;SDS011;3594;42.152;24.714;2023-03-01T03:48:22;3.67;;;2.60;;
7104;SDS011;3594;42.152;24.714;2023-03-01T03:50:48;3.17;;;2.23;;
7104;SDS011;3594;42.152;24.714;2023-03-01T03:53:16;3.17;;;2.53;;
7104;SDS011;3594;42.152;24.714;2023-03-01T03:55:42;2.93;;;2.43;;
7104;SDS011;3594;42.152;24.714;2023-03-01T03:58:09;4.10;;;2.60;;
7104;SDS011;3594;42.152;24.714;2023-03-01T04:00:39;3.27;;;2.40;;
7104;SDS011;3594;42.152;24.714;2023-03-01T04:03:06;2.33;;;2.13;;
7104;SDS011;3594;42.152;24.714;2023-03-01T04:05:33;2.03;;;1.67;;
7104;SDS011;3594;42.152;24.714;2023-03-01T04:07:59;3.33;;;2.33;;
7104;SDS011;3594;42.152;24.714;2023-03-01T04:10:28;2.23;;;1.93;;
7104;SDS011;3594;42.152;24.714;2023-03-01T04:12:55;3.03;;;2.03;;
7104;SDS011;3594;42.152;24.714;2023-03-01T04:15:23;2.17;;;1.97;;
7104;SDS011;3594;42.152;24.714;2023-03-01T04:17:51;2.23;;;2.03;;
7104;SDS011;3594;42.152;24.714;2023-03-01T04:20:19;2.53;;;2.33;;
7104;SDS011;3594;42.152;24.714;2023-03-01T04:22:50;2.13;;;1.90;;
7104;SDS011;3594;42.152;24.714;2023-03-01T04:25:36;2.17;;;1.90;;
7104;SDS011;3594;42.152;24.714;2023-03-01T04:28:05;2.23;;;1.93;;
7104;SDS011;3594;42.152;24.714;2023-03-01T04:30:31;2.00;;;1.80;;
7104;SDS011;3594;42.152;24.714;2023-03-01T04:33:10;2.00;;;1.90;;
7104;SDS011;3594;42.152;24.714;2023-03-01T04:35:36;2.53;;;2.03;;
7104;SDS011;3594;42.152;24.714;2023-03-01T04:38:03;2.57;;;2.37;;
7104;SDS011;3594;42.152;24.714;2023-03-01T04:40:29;2.60;;;1.77;;
7104;SDS011;3594;42.152;24.714;2023-03-01T04:42:55;1.97;;;1.83;;
7104;SDS011;3594;42.152;24.714;2023-03-01T04:45:20;2.07;;;1.80;;
7104;SDS011;3594;42.152;24.714;2023-03-01T04:47:46;3.27;;;2.30;;
7104;SDS011;3594;42.152;24.714;2023-03-01T04:50:13;3.40;;;2.40;;
7104;SDS011;3594;42.152;24.714;2023-03-01T04:52:41;2.20;;;2.00;;
7104;SDS011;3594;42.152;24.714;2023-03-01T04:55:07;3.27;;;2.30;;
7104;SDS011;3594;42.152;24.714;2023-03-01T04:57:33;2.93;;;2.33;;
7104;SDS011;3594;42.152;24.714;2023-03-01T04:59:59;3.47;;;2.47;;
7104;SDS011;3594;42.152;24.714;2023-03-01T05:02:24;3.07;;;2.30;;
7104;SDS011;3594;42.152;24.714;2023-03-01T05:04:50;2.77;;;2.47;;
7104;SDS011;3594;42.152;24.714;2023-03-01T05:07:15;2.30;;;2.10;;
7104;SDS011;3594;42.152;24.714;2023-03-01T05:09:44;1.87;;;1.67;;
7104;SDS011;3594;42.152;24.714;2023-03-01T05:12:14;2.93;;;2.73;;
7104;SDS011;3594;42.152;24.714;2023-03-01T05:14:40;2.00;;;1.80;;
7104;SDS011;3594;42.152;24.714;2023-03-01T05:17:06;2.27;;;2.07;;
7104;SDS011;3594;42.152;24.714;2023-03-01T05:19:32;2.50;;;2.30;;
7104;SDS011;3594;42.152;24.714;2023-03-01T05:21:58;2.10;;;2.00;;
7104;SDS011;3594;42.152;24.714;2023-03-01T05:24:27;3.00;;;2.27;;
7104;SDS011;3594;42.152;24.714;2023-03-01T05:26:53;3.30;;;2.43;;
7104;SDS011;3594;42.152;24.714;2023-03-01T05:29:20;3.33;;;2.37;;
7104;SDS011;3594;42.152;24.714;2023-03-01T05:31:53;3.30;;;2.70;;
7104;SDS011;3594;42.152;24.714;2023-03-01T05:34:23;2.63;;;2.30;;
7104;SDS011;3594;42.152;24.714;2023-03-01T05:36:58;2.17;;;2.00;;
7104;SDS011;3594;42.152;24.714;2023-03-01T05:39:25;2.20;;;2.10;;
7104;SDS011;3594;42.152;24.714;2023-03-01T05:41:53;3.40;;;2.53;;
7104;SDS011;3594;42.152;24.714;2023-03-01T05:44:19;3.13;;;2.70;;
7104;SDS011;3594;42.152;24.714;2023-03-01T05:46:45;3.03;;;2.10;;
7104;SDS011;3594;42.152;24.714;2023-03-01T05:49:11;4.23;;;3.03;;
7104;SDS011;3594;42.152;24.714;2023-03-01T05:51:38;2.23;;;2.03;;
7104;SDS011;3594;42.152;24.714;2023-03-01T05:54:04;2.33;;;2.10;;
7104;SDS011;3594;42.152;24.714;2023-03-01T05:56:32;5.33;;;3.13;;
7104;SDS011;3594;42.152;24.714;2023-03-01T05:58:59;2.93;;;2.57;;
7104;SDS011;3594;42.152;24.714;2023-03-01T06:01:25;3.03;;;2.20;;
7104;SDS011;3594;42.152;24.714;2023-03-01T06:03:51;3.40;;;2.33;;
7104;SDS011;3594;42.152;24.714;2023-03-01T06:06:16;2.90;;;2.60;;
7104;SDS011;3594;42.152;24.714;2023-03-01T06:08:41;2.50;;;2.17;;
7104;SDS011;3594;42.152;24.714;2023-03-01T06:11:07;2.67;;;2.20;;
7104;SDS011;3594;42.152;24.714;2023-03-01T06:13:32;2.33;;;2.10;;
7104;SDS011;3594;42.152;24.714;2023-03-01T06:15:58;2.73;;;2.43;;
7104;SDS011;3594;42.152;24.714;2023-03-01T06:18:23;2.37;;;1.80;;
7104;SDS011;3594;42.152;24.714;2023-03-01T06:20:53;2.53;;;1.97;;
7104;SDS011;3594;42.152;24.714;2023-03-01T06:23:19;4.37;;;2.60;;
7104;SDS011;3594;42.152;24.714;2023-03-01T06:25:44;4.27;;;2.60;;
7104;SDS011;3594;42.152;24.714;2023-03-01T06:28:10;2.40;;;2.20;;
7104;SDS011;3594;42.152;24.714;2023-03-01T06:30:35;2.83;;;2.17;;
7104;SDS011;3594;42.152;24.714;2023-03-01T06:33:01;2.23;;;2.03;;
7104;SDS011;3594;42.152;24.714;2023-03-01T06:35:28;3.30;;;2.40;;
7104;SDS011;3594;42.152;24.714;2023-03-01T06:37:56;3.17;;;1.97;;
7104;SDS011;3594;42.152;24.714;2023-03-01T06:40:22;3.20;;;2.27;;
7104;SDS011;3594;42.152;24.714;2023-03-01T06:42:49;2.57;;;2.37;;
7104;SDS011;3594;42.152;24.714;2023-03-01T06:45:15;3.17;;;2.37;;
7104;SDS011;3594;42.152;24.714;2023-03-01T06:47:41;3.13;;;2.60;;
7104;SDS011;3594;42.152;24.714;2023-03-01T06:50:07;2.50;;;2.07;;
7104;SDS011;3594;42.152;24.714;2023-03-01T06:52:33;2.03;;;1.90;;
7104;SDS011;3594;42.152;24.714;2023-03-01T06:54:59;3.73;;;2.00;;
7104;SDS011;3594;42.152;24.714;2023-03-01T06:57:25;2.20;;;2.00;;
7104;SDS011;3594;42.152;24.714;2023-03-01T06:59:50;2.77;;;1.97;;
7104;SDS011;3594;42.152;24.714;2023-03-01T07:02:16;2.47;;;2.27;;
7104;SDS011;3594;42.152;24.714;2023-03-01T07:04:41;3.80;;;2.10;;
7104;SDS011;3594;42.152;24.714;2023-03-01T07:07:08;2.33;;;2.00;;
7104;SDS011;3594;42.152;24.714;2023-03-01T07:09:34;2.17;;;1.97;;
7104;SDS011;3594;42.152;24.714;2023-03-01T07:11:59;2.70;;;1.93;;
7104;SDS011;3594;42.152;24.714;2023-03-01T07:14:25;2.70;;;2.10;;
7104;SDS011;3594;42.152;24.714;2023-03-01T07:16:51;2.93;;;1.93;;
7104;SDS011;3594;42.152;24.714;2023-03-01T07:19:19;2.60;;;2.13;;
7104;SDS011;3594;42.152;24.714;2023-03-01T07:21:45;2.93;;;2.47;;
7104;SDS011;3594;42.152;24.714;2023-03-01T07:24:11;3.10;;;2.43;;
7104;SDS011;3594;42.152;24.714;2023-03-01T07:26:37;7.43;;;2.53;;
7104;SDS011;3594;42.152;24.714;2023-03-01T07:29:03;3.20;;;2.50;;
7104;SDS011;3594;42.152;24.714;2023-03-01T07:31:31;2.47;;;2.17;;
7104;SDS011;3594;42.152;24.714;2023-03-01T07:33:57;3.87;;;2.53;;
7104;SDS011;3594;42.152;24.714;2023-03-01T07:36:23;3.13;;;2.57;;
7104;SDS011;3594;42.152;24.714;2023-03-01T07:38:48;2.87;;;2.17;;
7104;SDS011;3594;42.152;24.714;2023-03-01T07:41:14;3.53;;;2.90;;
7104;SDS011;3594;42.152;24.714;2023-03-01T07:43:39;5.53;;;2.70;;
7104;SDS011;3594;42.152;24.714;2023-03-01T07:46:05;4.10;;;2.93;;
7104;SDS011;3594;42.152;24.714;2023-03-01T07:48:32;3.27;;;2.70;;
7104;SDS011;3594;42.152;24.714;2023-03-01T07:50:58;3.03;;;2.70;;
7104;SDS011;3594;42.152;24.714;2023-03-01T07:53:24;3.63;;;2.80;;
7104;SDS011;3594;42.152;24.714;2023-03-01T07:55:50;5.17;;;3.47;;
7104;SDS011;3594;42.152;24.714;2023-03-01T07:58:24;3.57;;;2.80;;
7104;SDS011;3594;42.152;24.714;2023-03-01T08:00:50;4.07;;;2.50;;
7104;SDS011;3594;42.152;24.714;2023-03-01T08:03:15;3.23;;;2.43;;
7104;SDS011;3594;42.152;24.714;2023-03-01T08:05:41;5.50;;;2.73;;
7104;SDS011;3594;42.152;24.714;2023-03-01T08:08:06;2.73;;;2.53;;
7104;SDS011;3594;42.152;24.714;2023-03-01T08:10:31;6.03;;;2.30;;
7104;SDS011;3594;42.152;24.714;2023-03-01T08:12:57;3.83;;;2.53;;
7104;SDS011;3594;42.152;24.714;2023-03-01T08:15:22;2.50;;;1.60;;
7104;SDS011;3594;42.152;24.714;2023-03-01T08:17:48;3.90;;;1.93;;
7104;SDS011;3594;42.152;24.714;2023-03-01T08:20:15;1.63;;;1.53;;
7104;SDS011;3594;42.152;24.714;2023-03-01T08:22:41;2.50;;;1.53;;
7104;SDS011;3594;42.152;24.714;2023-03-01T08:25:07;1.63;;;1.53;;
7104;SDS011;3594;42.152;24.714;2023-03-01T08:27:33;1.70;;;1.60;;
7104;SDS011;3594;42.152;24.714;2023-03-01T08:29:58;2.00;;;1.80;;
7104;SDS011;3594;42.152;24.714;2023-03-01T08:32:24;2.17;;;1.90;;
7104;SDS011;3594;42.152;24.714;2023-03-01T08:34:49;4.17;;;2.17;;
7104;SDS011;3594;42.152;24.714;2023-03-01T08:37:14;2.23;;;2.03;;
7104;SDS011;3594;42.152;24.714;2023-03-01T08:39:40;2.03;;;1.83;;
7104;SDS011;3594;42.152;24.714;2023-03-01T08:42:05;1.80;;;1.70;;
7104;SDS011;3594;42.152;24.714;2023-03-01T08:44:31;2.20;;;1.87;;
7104;SDS011;3594;42.152;24.714;2023-03-01T08:46:56;2.40;;;2.13;;
7104;SDS011;3594;42.152;24.714;2023-03-01T08:49:22;1.97;;;1.80;;
7104;SDS011;3594;42.152;24.714;2023-03-01T08:51:48;3.20;;;1.93;;
7104;SDS011;3594;42.152;24.714;2023-03-01T08:54:16;1.60;;;1.50;;
7104;SDS011;3594;42.152;24.714;2023-03-01T08:56:43;1.97;;;1.70;;
7104;SDS011;3594;42.152;24.714;2023-03-01T08:59:10;2.57;;;1.90;;
7104;SDS011;3594;42.152;24.714;2023-03-01T09:01:36;2.10;;;1.83;;
7104;SDS011;3594;42.152;24.714;2023-03-01T09:04:02;1.70;;;1.60;;
7104;SDS011;3594;42.152;24.714;2023-03-01T09:06:30;1.70;;;1.60;;
7104;SDS011;3594;42.152;24.714;2023-03-01T09:08:58;1.87;;;1.40;;
7104;SDS011;3594;42.152;24.714;2023-03-01T09:11:23;1.43;;;1.33;;
7104;SDS011;3594;42.152;24.714;2023-03-01T09:13:49;1.60;;;1.50;;
7104;SDS011;3594;42.152;24.714;2023-03-01T09:16:16;1.93;;;1.60;;
7104;SDS011;3594;42.152;24.714;2023-03-01T09:18:44;2.30;;;1.77;;
7104;SDS011;3594;42.152;24.714;2023-03-01T09:21:11;2.87;;;1.70;;
7104;SDS011;3594;42.152;24.714;2023-03-01T09:23:41;2.30;;;1.70;;
7104;SDS011;3594;42.152;24.714;2023-03-01T09:26:09;1.40;;;1.30;;
7104;SDS011;3594;42.152;24.714;2023-03-01T09:28:37;1.40;;;1.30;;
7104;SDS011;3594;42.152;24.714;2023-03-01T09:31:03;1.93;;;1.30;;
7104;SDS011;3594;42.152;24.714;2023-03-01T09:33:29;1.50;;;1.40;;
7104;SDS011;3594;42.152;24.714;2023-03-01T09:36:00;1.70;;;1.60;;
7104;SDS011;3594;42.152;24.714;2023-03-01T09:38:28;3.77;;;2.07;;
7104;SDS011;3594;42.152;24.714;2023-03-01T09:40:54;1.50;;;1.40;;
7104;SDS011;3594;42.152;24.714;2023-03-01T09:43:25;1.77;;;1.67;;
7104;SDS011;3594;42.152;24.714;2023-03-01T09:45:58;1.50;;;1.40;;
7104;SDS011;3594;42.152;24.714;2023-03-01T09:48:30;2.03;;;1.73;;
7104;SDS011;3594;42.152;24.714;2023-03-01T09:51:02;1.70;;;1.47;;
7104;SDS011;3594;42.152;24.714;2023-03-01T09:53:37;2.47;;;1.93;;
7104;SDS011;3594;42.152;24.714;2023-03-01T09:56:11;1.70;;;1.60;;
7104;SDS011;3594;42.152;24.714;2023-03-01T09:58:47;1.60;;;1.50;;
7104;SDS011;3594;42.152;24.714;2023-03-01T10:04:04;2.27;;;1.90;;
7104;SDS011;3594;42.152;24.714;2023-03-01T10:06:31;2.00;;;1.73;;
7104;SDS011;3594;42.152;24.714;2023-03-01T10:08:58;1.77;;;1.67;;
7104;SDS011;3594;42.152;24.714;2023-03-01T10:11:30;2.57;;;2.10;;
7104;SDS011;3594;42.152;24.714;2023-03-01T10:16:59;2.20;;;1.73;;
7104;SDS011;3594;42.152;24.714;2023-03-01T10:19:39;2.60;;;1.60;;
7104;SDS011;3594;42.152;24.714;2023-03-01T10:22:16;2.10;;;1.80;;
7104;SDS011;3594;42.152;24.714;2023-03-01T10:24:43;2.60;;;1.97;;
7104;SDS011;3594;42.152;24.714;2023-03-01T10:32:16;1.60;;;1.50;;
7104;SDS011;3594;42.152;24.714;2023-03-01T10:34:43;2.03;;;1.80;;
7104;SDS011;3594;42.152;24.714;2023-03-01T10:39:34;2.43;;;1.90;;
7104;SDS011;3594;42.152;24.714;2023-03-01T10:42:03;2.17;;;1.80;;
7104;SDS011;3594;42.152;24.714;2023-03-01T10:49:38;1.80;;;1.70;;
7104;SDS011;3594;42.152;24.714;2023-03-01T10:52:17;2.07;;;1.93;;
7104;SDS011;3594;42.152;24.714;2023-03-01T10:54:51;1.37;;;1.27;;
7104;SDS011;3594;42.152;24.714;2023-03-01T10:57:28;2.70;;;1.80;;
7104;SDS011;3594;42.152;24.714;2023-03-01T11:00:05;2.00;;;1.90;;
7104;SDS011;3594;42.152;24.714;2023-03-01T11:05:25;2.13;;;1.90;;
7104;SDS011;3594;42.152;24.714;2023-03-01T11:10:26;2.60;;;1.60;;
7104;SDS011;3594;42.152;24.714;2023-03-01T11:13:06;1.77;;;1.67;;
7104;SDS011;3594;42.152;24.714;2023-03-01T11:15:33;1.80;;;1.70;;
7104;SDS011;3594;42.152;24.714;2023-03-01T11:17:58;1.57;;;1.47;;
7104;SDS011;3594;42.152;24.714;2023-03-01T11:20:25;1.60;;;1.50;;
7104;SDS011;3594;42.152;24.714;2023-03-01T11:23:33;1.40;;;1.30;;
7104;SDS011;3594;42.152;24.714;2023-03-01T11:25:41;1.63;;;1.53;;
7104;SDS011;3594;42.152;24.714;2023-03-01T11:28:13;3.47;;;2.17;;
7104;SDS011;3594;42.152;24.714;2023-03-01T11:30:48;4.00;;;1.97;;
7104;SDS011;3594;42.152;24.714;2023-03-01T11:33:18;1.53;;;1.43;;
7104;SDS011;3594;42.152;24.714;2023-03-01T11:35:55;2.37;;;2.03;;
7104;SDS011;3594;42.152;24.714;2023-03-01T11:38:28;2.47;;;1.97;;
7104;SDS011;3594;42.152;24.714;2023-03-01T11:41:00;1.97;;;1.77;;
7104;SDS011;3594;42.152;24.714;2023-03-01T12:05:23;1.93;;;1.80;;
7104;SDS011;3594;42.152;24.714;2023-03-01T12:07:49;2.43;;;1.97;;
7104;SDS011;3594;42.152;24.714;2023-03-01T12:10:28;3.00;;;2.10;;
7104;SDS011;3594;42.152;24.714;2023-03-01T12:15:30;2.23;;;2.03;;
7104;SDS011;3594;42.152;24.714;2023-03-01T12:18:16;3.40;;;2.30;;
7104;SDS011;3594;42.152;24.714;2023-03-01T12:40:42;2.63;;;2.20;;
7104;SDS011;3594;42.152;24.714;2023-03-01T12:43:34;3.07;;;2.07;;
7104;SDS011;3594;42.152;24.714;2023-03-01T12:46:06;3.53;;;2.57;;
7104;SDS011;3594;42.152;24.714;2023-03-01T12:49:41;3.47;;;2.80;;
7104;SDS011;3594;42.152;24.714;2023-03-01T12:51:34;2.93;;;2.13;;
7104;SDS011;3594;42.152;24.714;2023-03-01T12:54:05;3.73;;;2.50;;
7104;SDS011;3594;42.152;24.714;2023-03-01T12:56:44;3.93;;;2.80;;
7104;SDS011;3594;42.152;24.714;2023-03-01T12:59:18;3.30;;;2.77;;
7104;SDS011;3594;42.152;24.714;2023-03-01T13:04:29;5.67;;;3.07;;
7104;SDS011;3594;42.152;24.714;2023-03-01T13:07:25;4.00;;;3.47;;
7104;SDS011;3594;42.152;24.714;2023-03-01T13:17:47;4.67;;;3.20;;
7104;SDS011;3594;42.152;24.714;2023-03-01T13:20:15;4.47;;;3.17;;
7104;SDS011;3594;42.152;24.714;2023-03-01T13:22:43;5.13;;;2.50;;
7104;SDS011;3594;42.152;24.714;2023-03-01T13:27:43;3.10;;;2.50;;
7104;SDS011;3594;42.152;24.714;2023-03-01T13:35:53;2.17;;;1.87;;
7104;SDS011;3594;42.152;24.714;2023-03-01T13:41:03;2.83;;;2.37;;
7104;SDS011;3594;42.152;24.714;2023-03-01T13:43:33;2.60;;;2.17;;
7104;SDS011;3594;42.152;24.714;2023-03-01T13:46:02;2.97;;;2.53;;
7104;SDS011;3594;42.152;24.714;2023-03-01T13:48:36;4.63;;;3.13;;
7104;SDS011;3594;42.152;24.714;2023-03-01T13:51:07;2.67;;;2.00;;
7104;SDS011;3594;42.152;24.714;2023-03-01T13:53:45;3.10;;;2.50;;
7104;SDS011;3594;42.152;24.714;2023-03-01T13:56:16;2.40;;;2.17;;
7104;SDS011;3594;42.152;24.714;2023-03-01T13:58:58;2.47;;;2.27;;
7104;SDS011;3594;42.152;24.714;2023-03-01T14:01:33;4.47;;;2.37;;
7104;SDS011;3594;42.152;24.714;2023-03-01T14:04:01;3.37;;;2.37;;
7104;SDS011;3594;42.152;24.714;2023-03-01T14:06:28;4.20;;;2.57;;
7104;SDS011;3594;42.152;24.714;2023-03-01T14:20:01;3.73;;;2.03;;
7104;SDS011;3594;42.152;24.714;2023-03-01T14:22:40;3.53;;;2.53;;
7104;SDS011;3594;42.152;24.714;2023-03-01T14:25:18;3.37;;;2.30;;
7104;SDS011;3594;42.152;24.714;2023-03-01T14:27:50;2.03;;;1.83;;
7104;SDS011;3594;42.152;24.714;2023-03-01T14:30:30;2.57;;;2.10;;
7104;SDS011;3594;42.152;24.714;2023-03-01T14:33:04;2.50;;;2.00;;
7104;SDS011;3594;42.152;24.714;2023-03-01T14:35:42;2.80;;;2.50;;
7104;SDS011;3594;42.152;24.714;2023-03-01T14:38:19;3.00;;;2.70;;
7104;SDS011;3594;42.152;24.714;2023-03-01T14:40:46;2.87;;;2.60;;
7104;SDS011;3594;42.152;24.714;2023-03-01T14:43:17;3.67;;;2.73;;
7104;SDS011;3594;42.152;24.714;2023-03-01T14:45:48;3.90;;;2.37;;
7104;SDS011;3594;42.152;24.714;2023-03-01T14:48:15;3.23;;;2.63;;
7104;SDS011;3594;42.152;24.714;2023-03-01T14:50:41;2.47;;;2.27;;
7104;SDS011;3594;42.152;24.714;2023-03-01T14:53:12;3.13;;;2.13;;
7104;SDS011;3594;42.152;24.714;2023-03-01T14:55:47;2.83;;;1.97;;
7104;SDS011;3594;42.152;24.714;2023-03-01T14:58:19;2.33;;;1.97;;
7104;SDS011;3594;42.152;24.714;2023-03-01T15:00:50;2.30;;;2.10;;
7104;SDS011;3594;42.152;24.714;2023-03-01T15:03:36;2.87;;;2.20;;
7104;SDS011;3594;42.152;24.714;2023-03-01T15:06:04;3.13;;;2.20;;
7104;SDS011;3594;42.152;24.714;2023-03-01T15:08:31;2.30;;;2.10;;
7104;SDS011;3594;42.152;24.714;2023-03-01T15:11:20;2.43;;;2.00;;
7104;SDS011;3594;42.152;24.714;2023-03-01T15:13:50;4.30;;;2.63;;
7104;SDS011;3594;42.152;24.714;2023-03-01T15:18:45;4.07;;;2.80;;
7104;SDS011;3594;42.152;24.714;2023-03-01T15:23:47;2.43;;;2.00;;
7104;SDS011;3594;42.152;24.714;2023-03-01T15:26:26;2.27;;;2.07;;
7104;SDS011;3594;42.152;24.714;2023-03-01T15:28:56;2.47;;;1.97;;
7104;SDS011;3594;42.152;24.714;2023-03-01T15:31:24;3.57;;;2.40;;
7104;SDS011;3594;42.152;24.714;2023-03-01T15:34:08;2.13;;;1.80;;
7104;SDS011;3594;42.152;24.714;2023-03-01T15:41:52;3.07;;;2.77;;
7104;SDS011;3594;42.152;24.714;2023-03-01T15:44:31;4.57;;;2.80;;
7104;SDS011;3594;42.152;24.714;2023-03-01T15:46:58;2.63;;;2.23;;
7104;SDS011;3594;42.152;24.714;2023-03-01T15:49:40;3.23;;;2.07;;
7104;SDS011;3594;42.152;24.714;2023-03-01T15:52:15;1.93;;;1.53;;
7104;SDS011;3594;42.152;24.714;2023-03-01T15:54:47;2.37;;;2.17;;
7104;SDS011;3594;42.152;24.714;2023-03-01T15:57:12;2.23;;;2.03;;
7104;SDS011;3594;42.152;24.714;2023-03-01T15:59:39;3.53;;;1.73;;
7104;SDS011;3594;42.152;24.714;2023-03-01T16:02:08;2.00;;;1.80;;
7104;SDS011;3594;42.152;24.714;2023-03-01T16:04:35;2.30;;;2.00;;
7104;SDS011;3594;42.152;24.714;2023-03-01T16:07:01;3.20;;;2.03;;
7104;SDS011;3594;42.152;24.714;2023-03-01T16:09:26;2.33;;;1.70;;
7104;SDS011;3594;42.152;24.714;2023-03-01T16:11:52;3.63;;;1.80;;
7104;SDS011;3594;42.152;24.714;2023-03-01T16:14:19;2.60;;;2.23;;
7104;SDS011;3594;42.152;24.714;2023-03-01T16:16:45;2.47;;;1.90;;
7104;SDS011;3594;42.152;24.714;2023-03-01T16:19:13;2.17;;;1.97;;
7104;SDS011;3594;42.152;24.714;2023-03-01T16:21:38;1.90;;;1.67;;
7104;SDS011;3594;42.152;24.714;2023-03-01T16:24:05;2.10;;;1.87;;
7104;SDS011;3594;42.152;24.714;2023-03-01T16:26:31;5.60;;;2.27;;
7104;SDS011;3594;42.152;24.714;2023-03-01T16:28:57;2.67;;;2.10;;
7104;SDS011;3594;42.152;24.714;2023-03-01T16:31:23;2.47;;;2.00;;
7104;SDS011;3594;42.152;24.714;2023-03-01T16:33:52;2.40;;;2.20;;
7104;SDS011;3594;42.152;24.714;2023-03-01T16:36:20;2.87;;;2.40;;
7104;SDS011;3594;42.152;24.714;2023-03-01T16:38:48;4.37;;;2.50;;
7104;SDS011;3594;42.152;24.714;2023-03-01T16:41:15;3.70;;;2.63;;
7104;SDS011;3594;42.152;24.714;2023-03-01T16:43:42;4.10;;;2.60;;
7104;SDS011;3594;42.152;24.714;2023-03-01T16:46:12;3.97;;;2.97;;
7104;SDS011;3594;42.152;24.714;2023-03-01T16:48:39;4.43;;;2.43;;
7104;SDS011;3594;42.152;24.714;2023-03-01T16:51:05;2.73;;;2.53;;
7104;SDS011;3594;42.152;24.714;2023-03-01T16:53:32;5.13;;;2.50;;
7104;SDS011;3594;42.152;24.714;2023-03-01T16:55:59;2.97;;;2.17;;
7104;SDS011;3594;42.152;24.714;2023-03-01T16:58:25;2.73;;;2.50;;
7104;SDS011;3594;42.152;24.714;2023-03-01T17:00:51;2.80;;;2.50;;
7104;SDS011;3594;42.152;24.714;2023-03-01T17:03:18;2.93;;;2.13;;
7104;SDS011;3594;42.152;24.714;2023-03-01T17:05:47;5.53;;;2.60;;
7104;SDS011;3594;42.152;24.714;2023-03-01T17:08:13;5.03;;;2.90;;
7104;SDS011;3594;42.152;24.714;2023-03-01T17:10:39;14.43;;;2.80;;